UKOH/KHE METAR and TAF weather

Enter ICAO airport designator
Station Type Date Time Source
UKOH METAR 2020/03/27 12:00 UTC NOAA

UKOH 271200Z 06010MPS CAVOK 15/M08 Q1019 NOSIG


Station Type Date Time Source
UKOH Decoded METAR 2020/03/27 12:00 UTC NOAA

Station name not available
Mar 27, 2020 - 08:00 AM EDT / 2020.03.27 1200 UTC
Wind: from the ENE (060 degrees) at 22 MPH (19 KT):0
Visibility: greater than 7 mile(s):0
Temperature: 59 F (15 C)
Dew Point: 17 F (-8 C)
Relative Humidity: 19%
Pressure (altimeter): 30.09 in. Hg (1019 hPa)
ob: UKOH 271200Z 06010MPS CAVOK 15/M08 Q1019 NOSIG
cycle: 12

Station Type Date Time Source
UKOH TAF UTC NOAA

Error!

Example: see airport list